sensor_id;sensor_type;location;lat;lon;timestamp;pressure;altitude;pressure_sealevel;temperature;humidity
20620;BME280;10469;42.720;23.252;2023-05-09T00:00:43;95179.59;;;12.25;100.00
20620;BME280;10469;42.720;23.252;2023-05-09T00:03:09;95183.94;;;12.26;100.00
20620;BME280;10469;42.720;23.252;2023-05-09T00:05:36;95161.66;;;12.14;100.00
20620;BME280;10469;42.720;23.252;2023-05-09T00:08:01;95172.69;;;12.29;100.00
20620;BME280;10469;42.720;23.252;2023-05-09T00:10:27;95170.88;;;12.18;100.00
20620;BME280;10469;42.720;23.252;2023-05-09T00:12:53;95178.06;;;12.29;100.00
20620;BME280;10469;42.720;23.252;2023-05-09T00:15:19;95173.06;;;12.21;100.00
20620;BME280;10469;42.720;23.252;2023-05-09T00:17:44;95159.34;;;12.06;100.00
20620;BME280;10469;42.720;23.252;2023-05-09T00:20:11;95176.13;;;12.13;100.00
20620;BME280;10469;42.720;23.252;2023-05-09T00:22:40;95172.31;;;12.09;100.00
20620;BME280;10469;42.720;23.252;2023-05-09T00:25:07;95166.34;;;12.07;100.00
20620;BME280;10469;42.720;23.252;2023-05-09T00:27:34;95155.31;;;11.92;100.00
20620;BME280;10469;42.720;23.252;2023-05-09T00:29:59;95155.69;;;11.84;100.00
20620;BME280;10469;42.720;23.252;2023-05-09T00:32:25;95165.56;;;11.95;100.00
20620;BME280;10469;42.720;23.252;2023-05-09T00:34:51;95162.66;;;11.96;100.00
20620;BME280;10469;42.720;23.252;2023-05-09T00:37:17;95147.25;;;11.92;100.00
20620;BME280;10469;42.720;23.252;2023-05-09T00:39:44;95158.91;;;11.97;100.00
20620;BME280;10469;42.720;23.252;2023-05-09T00:42:10;95172.19;;;12.04;100.00
20620;BME280;10469;42.720;23.252;2023-05-09T00:44:36;95156.06;;;12.04;100.00
20620;BME280;10469;42.720;23.252;2023-05-09T00:47:01;95150.22;;;12.07;100.00
20620;BME280;10469;42.720;23.252;2023-05-09T00:49:27;95144.94;;;12.12;100.00
20620;BME280;10469;42.720;23.252;2023-05-09T00:51:54;95150.31;;;12.12;100.00
20620;BME280;10469;42.720;23.252;2023-05-09T00:54:20;95134.09;;;12.07;100.00
20620;BME280;10469;42.720;23.252;2023-05-09T00:56:46;95154.81;;;12.35;100.00
20620;BME280;10469;42.720;23.252;2023-05-09T00:59:11;95165.25;;;12.48;100.00
20620;BME280;10469;42.720;23.252;2023-05-09T01:01:37;95161.34;;;12.56;100.00
20620;BME280;10469;42.720;23.252;2023-05-09T01:04:03;95145.03;;;12.46;100.00
20620;BME280;10469;42.720;23.252;2023-05-09T01:07:01;95151.09;;;12.53;100.00
20620;BME280;10469;42.720;23.252;2023-05-09T01:09:46;95154.69;;;12.59;100.00
20620;BME280;10469;42.720;23.252;2023-05-09T01:15:03;95147.50;;;12.64;100.00
20620;BME280;10469;42.720;23.252;2023-05-09T01:20:37;95155.41;;;12.54;100.00
20620;BME280;10469;42.720;23.252;2023-05-09T01:26:03;95157.63;;;12.57;100.00
20620;BME280;10469;42.720;23.252;2023-05-09T01:31:10;95155.72;;;12.41;100.00
20620;BME280;10469;42.720;23.252;2023-05-09T01:33:39;95159.34;;;12.35;100.00
20620;BME280;10469;42.720;23.252;2023-05-09T01:36:15;95155.28;;;12.32;100.00
20620;BME280;10469;42.720;23.252;2023-05-09T01:38:43;95159.97;;;12.25;100.00
20620;BME280;10469;42.720;23.252;2023-05-09T01:41:11;95154.38;;;12.26;100.00
20620;BME280;10469;42.720;23.252;2023-05-09T01:43:40;95151.72;;;12.15;100.00
20620;BME280;10469;42.720;23.252;2023-05-09T01:46:08;95157.31;;;12.13;100.00
20620;BME280;10469;42.720;23.252;2023-05-09T01:48:36;95170.63;;;12.20;100.00
20620;BME280;10469;42.720;23.252;2023-05-09T01:51:04;95164.19;;;12.21;100.00
20620;BME280;10469;42.720;23.252;2023-05-09T01:53:31;95145.31;;;12.04;100.00
20620;BME280;10469;42.720;23.252;2023-05-09T01:55:58;95172.22;;;12.33;100.00
20620;BME280;10469;42.720;23.252;2023-05-09T01:58:26;95180.28;;;12.33;100.00
20620;BME280;10469;42.720;23.252;2023-05-09T02:00:52;95169.06;;;12.36;100.00
20620;BME280;10469;42.720;23.252;2023-05-09T02:03:20;95166.94;;;12.38;100.00
20620;BME280;10469;42.720;23.252;2023-05-09T02:05:47;95166.59;;;12.34;100.00
20620;BME280;10469;42.720;23.252;2023-05-09T02:08:17;95170.78;;;12.42;100.00
20620;BME280;10469;42.720;23.252;2023-05-09T02:10:47;95164.59;;;12.41;100.00
20620;BME280;10469;42.720;23.252;2023-05-09T02:13:13;95173.47;;;12.42;100.00
20620;BME280;10469;42.720;23.252;2023-05-09T02:15:39;95175.69;;;12.45;100.00
20620;BME280;10469;42.720;23.252;2023-05-09T02:18:06;95167.84;;;12.43;100.00
20620;BME280;10469;42.720;23.252;2023-05-09T02:20:32;95166.38;;;12.36;100.00
20620;BME280;10469;42.720;23.252;2023-05-09T02:23:00;95164.06;;;12.27;100.00
20620;BME280;10469;42.720;23.252;2023-05-09T02:25:26;95169.19;;;12.29;100.00
20620;BME280;10469;42.720;23.252;2023-05-09T02:27:54;95171.44;;;12.20;100.00
20620;BME280;10469;42.720;23.252;2023-05-09T02:30:23;95163.38;;;12.20;100.00
20620;BME280;10469;42.720;23.252;2023-05-09T02:32:54;95175.19;;;12.19;100.00
20620;BME280;10469;42.720;23.252;2023-05-09T02:35:22;95165.38;;;12.13;100.00
20620;BME280;10469;42.720;23.252;2023-05-09T02:37:53;95167.25;;;12.13;100.00
20620;BME280;10469;42.720;23.252;2023-05-09T02:40:19;95154.91;;;12.00;100.00
20620;BME280;10469;42.720;23.252;2023-05-09T02:42:49;95160.25;;;12.12;100.00
20620;BME280;10469;42.720;23.252;2023-05-09T02:45:15;95164.38;;;12.02;100.00
20620;BME280;10469;42.720;23.252;2023-05-09T02:47:45;95167.78;;;11.98;100.00
20620;BME280;10469;42.720;23.252;2023-05-09T02:50:13;95168.03;;;11.96;100.00
20620;BME280;10469;42.720;23.252;2023-05-09T02:52:39;95169.78;;;11.91;100.00
20620;BME280;10469;42.720;23.252;2023-05-09T02:55:05;95169.69;;;11.86;100.00
20620;BME280;10469;42.720;23.252;2023-05-09T02:57:32;95165.94;;;11.87;100.00
20620;BME280;10469;42.720;23.252;2023-05-09T02:59:57;95153.53;;;11.74;100.00
20620;BME280;10469;42.720;23.252;2023-05-09T03:02:23;95169.28;;;11.82;100.00
20620;BME280;10469;42.720;23.252;2023-05-09T03:04:49;95153.31;;;11.87;100.00
20620;BME280;10469;42.720;23.252;2023-05-09T03:07:14;95160.22;;;11.83;100.00
20620;BME280;10469;42.720;23.252;2023-05-09T03:09:40;95175.66;;;11.88;100.00
20620;BME280;10469;42.720;23.252;2023-05-09T03:12:06;95186.25;;;11.94;100.00
20620;BME280;10469;42.720;23.252;2023-05-09T03:14:31;95184.28;;;11.90;100.00
20620;BME280;10469;42.720;23.252;2023-05-09T03:16:57;95192.09;;;11.91;100.00
20620;BME280;10469;42.720;23.252;2023-05-09T03:19:23;95187.75;;;11.78;100.00
20620;BME280;10469;42.720;23.252;2023-05-09T03:21:48;95172.84;;;11.59;100.00
20620;BME280;10469;42.720;23.252;2023-05-09T03:24:14;95191.75;;;11.64;100.00
20620;BME280;10469;42.720;23.252;2023-05-09T03:26:40;95190.13;;;11.63;100.00
20620;BME280;10469;42.720;23.252;2023-05-09T03:29:05;95186.84;;;11.61;100.00
20620;BME280;10469;42.720;23.252;2023-05-09T03:31:31;95204.25;;;11.70;100.00
20620;BME280;10469;42.720;23.252;2023-05-09T03:33:57;95213.97;;;11.83;100.00
20620;BME280;10469;42.720;23.252;2023-05-09T03:36:22;95195.81;;;11.78;100.00
20620;BME280;10469;42.720;23.252;2023-05-09T03:38:48;95201.00;;;11.92;100.00
20620;BME280;10469;42.720;23.252;2023-05-09T03:41:16;95212.19;;;12.00;100.00
20620;BME280;10469;42.720;23.252;2023-05-09T03:43:41;95211.59;;;11.98;100.00
20620;BME280;10469;42.720;23.252;2023-05-09T03:46:07;95213.09;;;12.06;100.00
20620;BME280;10469;42.720;23.252;2023-05-09T03:48:33;95196.19;;;11.94;100.00
20620;BME280;10469;42.720;23.252;2023-05-09T03:50:59;95218.94;;;12.03;100.00
20620;BME280;10469;42.720;23.252;2023-05-09T03:53:25;95214.44;;;11.92;100.00
20620;BME280;10469;42.720;23.252;2023-05-09T03:55:51;95218.50;;;11.94;100.00
20620;BME280;10469;42.720;23.252;2023-05-09T03:58:16;95225.63;;;11.89;100.00
20620;BME280;10469;42.720;23.252;2023-05-09T04:00:43;95205.88;;;11.71;100.00
20620;BME280;10469;42.720;23.252;2023-05-09T04:03:09;95216.16;;;11.86;100.00
20620;BME280;10469;42.720;23.252;2023-05-09T04:05:36;95216.16;;;11.86;100.00
20620;BME280;10469;42.720;23.252;2023-05-09T04:08:02;95200.97;;;11.80;100.00
20620;BME280;10469;42.720;23.252;2023-05-09T04:10:29;95216.84;;;11.81;100.00
20620;BME280;10469;42.720;23.252;2023-05-09T04:12:56;95224.34;;;11.91;100.00
20620;BME280;10469;42.720;23.252;2023-05-09T04:15:21;95203.69;;;11.92;100.00
20620;BME280;10469;42.720;23.252;2023-05-09T04:17:47;95216.16;;;11.98;100.00
20620;BME280;10469;42.720;23.252;2023-05-09T04:20:13;95215.44;;;12.02;100.00
20620;BME280;10469;42.720;23.252;2023-05-09T04:22:39;95230.38;;;12.22;100.00
20620;BME280;10469;42.720;23.252;2023-05-09T04:25:05;95241.66;;;12.36;100.00
20620;BME280;10469;42.720;23.252;2023-05-09T04:27:31;95231.25;;;12.39;100.00
20620;BME280;10469;42.720;23.252;2023-05-09T04:29:57;95230.13;;;12.52;100.00
20620;BME280;10469;42.720;23.252;2023-05-09T04:32:22;95226.19;;;12.43;100.00
20620;BME280;10469;42.720;23.252;2023-05-09T04:34:48;95218.56;;;12.51;100.00
20620;BME280;10469;42.720;23.252;2023-05-09T04:37:14;95223.44;;;12.66;100.00
20620;BME280;10469;42.720;23.252;2023-05-09T04:39:40;95229.66;;;12.55;100.00
20620;BME280;10469;42.720;23.252;2023-05-09T04:42:05;95211.28;;;12.35;100.00
20620;BME280;10469;42.720;23.252;2023-05-09T04:44:31;95234.97;;;12.38;100.00
20620;BME280;10469;42.720;23.252;2023-05-09T04:46:57;95222.41;;;12.27;100.00
20620;BME280;10469;42.720;23.252;2023-05-09T05:01:28;95232.06;;;12.68;100.00
20620;BME280;10469;42.720;23.252;2023-05-09T05:03:55;95228.56;;;12.68;100.00
20620;BME280;10469;42.720;23.252;2023-05-09T05:06:20;95226.78;;;12.73;100.00
20620;BME280;10469;42.720;23.252;2023-05-09T05:08:46;95223.81;;;12.87;100.00
20620;BME280;10469;42.720;23.252;2023-05-09T05:11:12;95205.91;;;12.52;100.00
20620;BME280;10469;42.720;23.252;2023-05-09T05:13:38;95233.13;;;12.67;100.00
20620;BME280;10469;42.720;23.252;2023-05-09T05:16:04;95219.28;;;12.75;100.00
20620;BME280;10469;42.720;23.252;2023-05-09T05:18:29;95222.00;;;12.92;100.00
20620;BME280;10469;42.720;23.252;2023-05-09T05:20:55;95206.28;;;13.01;100.00
20620;BME280;10469;42.720;23.252;2023-05-09T05:23:20;95208.88;;;12.96;100.00
20620;BME280;10469;42.720;23.252;2023-05-09T05:28:11;95215.41;;;13.17;100.00
20620;BME280;10469;42.720;23.252;2023-05-09T05:30:39;95213.69;;;12.94;100.00
20620;BME280;10469;42.720;23.252;2023-05-09T05:33:05;95225.03;;;12.96;100.00
20620;BME280;10469;42.720;23.252;2023-05-09T05:35:30;95229.84;;;12.94;100.00
20620;BME280;10469;42.720;23.252;2023-05-09T05:37:56;95238.75;;;13.11;100.00
20620;BME280;10469;42.720;23.252;2023-05-09T05:40:22;95223.25;;;13.01;100.00
20620;BME280;10469;42.720;23.252;2023-05-09T05:42:47;95242.81;;;12.97;100.00
20620;BME280;10469;42.720;23.252;2023-05-09T05:45:13;95229.03;;;13.10;100.00
20620;BME280;10469;42.720;23.252;2023-05-09T05:47:39;95223.78;;;13.49;100.00
20620;BME280;10469;42.720;23.252;2023-05-09T05:50:05;95221.16;;;13.54;100.00
20620;BME280;10469;42.720;23.252;2023-05-09T05:52:33;95229.56;;;13.41;100.00
20620;BME280;10469;42.720;23.252;2023-05-09T05:54:58;95236.50;;;13.70;100.00
20620;BME280;10469;42.720;23.252;2023-05-09T05:57:24;95226.09;;;14.18;100.00
20620;BME280;10469;42.720;23.252;2023-05-09T05:59:50;95222.63;;;14.66;100.00
20620;BME280;10469;42.720;23.252;2023-05-09T06:02:16;95208.00;;;13.96;100.00
20620;BME280;10469;42.720;23.252;2023-05-09T06:04:42;95237.94;;;13.95;100.00
20620;BME280;10469;42.720;23.252;2023-05-09T06:07:09;95216.81;;;14.09;100.00
20620;BME280;10469;42.720;23.252;2023-05-09T06:09:35;95227.75;;;14.90;100.00
20620;BME280;10469;42.720;23.252;2023-05-09T06:12:00;95213.53;;;15.31;100.00
20620;BME280;10469;42.720;23.252;2023-05-09T06:14:26;95236.28;;;15.36;100.00
20620;BME280;10469;42.720;23.252;2023-05-09T06:16:52;95219.25;;;15.35;100.00
20620;BME280;10469;42.720;23.252;2023-05-09T06:19:18;95222.63;;;14.93;100.00
20620;BME280;10469;42.720;23.252;2023-05-09T06:21:44;95218.06;;;15.21;100.00
20620;BME280;10469;42.720;23.252;2023-05-09T06:24:09;95189.69;;;15.23;100.00
20620;BME280;10469;42.720;23.252;2023-05-09T06:26:36;95221.41;;;15.06;100.00
20620;BME280;10469;42.720;23.252;2023-05-09T06:29:02;95218.25;;;17.14;100.00
20620;BME280;10469;42.720;23.252;2023-05-09T06:31:29;95206.25;;;16.74;100.00
20620;BME280;10469;42.720;23.252;2023-05-09T06:33:55;95194.13;;;15.35;100.00
20620;BME280;10469;42.720;23.252;2023-05-09T06:36:20;95208.44;;;16.88;100.00
20620;BME280;10469;42.720;23.252;2023-05-09T06:38:46;95199.47;;;18.85;100.00
20620;BME280;10469;42.720;23.252;2023-05-09T06:41:12;95202.28;;;17.38;100.00
20620;BME280;10469;42.720;23.252;2023-05-09T06:43:37;95211.75;;;17.61;100.00
20620;BME280;10469;42.720;23.252;2023-05-09T06:46:03;95199.56;;;17.59;100.00
20620;BME280;10469;42.720;23.252;2023-05-09T06:48:29;95200.38;;;17.79;100.00
20620;BME280;10469;42.720;23.252;2023-05-09T06:50:54;95206.41;;;16.42;100.00
20620;BME280;10469;42.720;23.252;2023-05-09T06:53:20;95210.88;;;16.11;100.00
20620;BME280;10469;42.720;23.252;2023-05-09T06:55:46;95220.19;;;15.51;100.00
20620;BME280;10469;42.720;23.252;2023-05-09T06:58:12;95213.00;;;16.72;100.00
20620;BME280;10469;42.720;23.252;2023-05-09T07:00:38;95214.59;;;16.00;100.00
20620;BME280;10469;42.720;23.252;2023-05-09T07:03:03;95195.63;;;15.20;100.00
20620;BME280;10469;42.720;23.252;2023-05-09T07:05:32;95199.81;;;15.06;100.00
20620;BME280;10469;42.720;23.252;2023-05-09T07:07:58;95213.31;;;14.30;100.00
20620;BME280;10469;42.720;23.252;2023-05-09T07:10:23;95211.75;;;14.12;100.00
20620;BME280;10469;42.720;23.252;2023-05-09T07:12:49;95214.72;;;14.16;100.00
20620;BME280;10469;42.720;23.252;2023-05-09T07:15:15;95205.66;;;14.22;100.00
20620;BME280;10469;42.720;23.252;2023-05-09T07:17:41;95220.31;;;14.31;100.00
20620;BME280;10469;42.720;23.252;2023-05-09T07:20:07;95218.00;;;14.40;100.00
20620;BME280;10469;42.720;23.252;2023-05-09T07:22:33;95198.66;;;14.48;100.00
20620;BME280;10469;42.720;23.252;2023-05-09T07:24:59;95220.00;;;14.27;100.00
20620;BME280;10469;42.720;23.252;2023-05-09T07:27:24;95212.66;;;14.45;100.00
20620;BME280;10469;42.720;23.252;2023-05-09T07:29:50;95203.69;;;14.39;100.00
20620;BME280;10469;42.720;23.252;2023-05-09T07:32:18;95225.97;;;14.29;100.00
20620;BME280;10469;42.720;23.252;2023-05-09T07:34:43;95217.94;;;14.35;100.00
20620;BME280;10469;42.720;23.252;2023-05-09T07:37:09;95213.03;;;14.10;100.00
20620;BME280;10469;42.720;23.252;2023-05-09T07:39:35;95216.00;;;14.08;100.00
20620;BME280;10469;42.720;23.252;2023-05-09T07:42:00;95221.06;;;14.26;100.00
20620;BME280;10469;42.720;23.252;2023-05-09T07:44:26;95225.16;;;13.90;100.00
20620;BME280;10469;42.720;23.252;2023-05-09T07:46:52;95209.13;;;13.78;100.00
20620;BME280;10469;42.720;23.252;2023-05-09T07:49:20;95206.94;;;14.19;100.00
20620;BME280;10469;42.720;23.252;2023-05-09T07:51:46;95205.88;;;14.20;100.00
20620;BME280;10469;42.720;23.252;2023-05-09T07:54:11;95225.88;;;14.46;100.00
20620;BME280;10469;42.720;23.252;2023-05-09T07:56:37;95212.59;;;14.40;100.00
20620;BME280;10469;42.720;23.252;2023-05-09T07:59:03;95227.66;;;14.36;100.00
20620;BME280;10469;42.720;23.252;2023-05-09T08:01:29;95222.16;;;14.25;100.00
20620;BME280;10469;42.720;23.252;2023-05-09T08:03:55;95214.34;;;14.29;100.00
20620;BME280;10469;42.720;23.252;2023-05-09T08:06:20;95183.25;;;13.99;100.00
20620;BME280;10469;42.720;23.252;2023-05-09T08:08:46;95207.72;;;14.15;100.00
20620;BME280;10469;42.720;23.252;2023-05-09T08:11:12;95205.31;;;14.18;100.00
20620;BME280;10469;42.720;23.252;2023-05-09T08:13:37;95215.00;;;14.58;100.00
20620;BME280;10469;42.720;23.252;2023-05-09T08:16:03;95202.06;;;14.60;100.00
20620;BME280;10469;42.720;23.252;2023-05-09T08:18:29;95206.50;;;14.98;100.00
20620;BME280;10469;42.720;23.252;2023-05-09T08:20:55;95212.72;;;14.99;100.00
20620;BME280;10469;42.720;23.252;2023-05-09T08:23:20;95208.25;;;14.83;100.00
20620;BME280;10469;42.720;23.252;2023-05-09T08:25:46;95196.59;;;14.77;100.00
20620;BME280;10469;42.720;23.252;2023-05-09T08:28:11;95216.94;;;15.17;100.00
20620;BME280;10469;42.720;23.252;2023-05-09T08:30:37;95208.81;;;15.49;100.00
20620;BME280;10469;42.720;23.252;2023-05-09T08:33:03;95212.84;;;15.78;100.00
20620;BME280;10469;42.720;23.252;2023-05-09T08:35:30;95220.88;;;16.11;100.00
20620;BME280;10469;42.720;23.252;2023-05-09T08:37:56;95192.72;;;16.74;100.00
20620;BME280;10469;42.720;23.252;2023-05-09T08:40:21;95208.13;;;16.06;100.00
20620;BME280;10469;42.720;23.252;2023-05-09T08:42:47;95203.03;;;15.67;100.00
20620;BME280;10469;42.720;23.252;2023-05-09T08:45:15;95208.06;;;15.21;100.00
20620;BME280;10469;42.720;23.252;2023-05-09T08:47:44;95215.06;;;14.90;100.00
20620;BME280;10469;42.720;23.252;2023-05-09T08:50:10;95205.84;;;14.86;100.00
20620;BME280;10469;42.720;23.252;2023-05-09T08:52:39;95209.44;;;15.61;100.00
20620;BME280;10469;42.720;23.252;2023-05-09T08:55:06;95196.06;;;15.44;100.00
20620;BME280;10469;42.720;23.252;2023-05-09T08:57:34;95207.13;;;15.75;100.00
20620;BME280;10469;42.720;23.252;2023-05-09T09:00:02;95201.28;;;16.46;100.00
20620;BME280;10469;42.720;23.252;2023-05-09T09:02:31;95205.78;;;17.74;100.00
20620;BME280;10469;42.720;23.252;2023-05-09T09:04:59;95216.03;;;16.86;100.00
20620;BME280;10469;42.720;23.252;2023-05-09T09:07:27;95197.78;;;16.55;100.00
20620;BME280;10469;42.720;23.252;2023-05-09T09:09:55;95208.81;;;16.39;100.00
20620;BME280;10469;42.720;23.252;2023-05-09T09:12:23;95188.16;;;16.12;100.00
20620;BME280;10469;42.720;23.252;2023-05-09T09:14:54;95209.94;;;16.53;100.00
20620;BME280;10469;42.720;23.252;2023-05-09T09:17:24;95210.09;;;16.21;100.00
20620;BME280;10469;42.720;23.252;2023-05-09T09:19:55;95197.28;;;16.69;100.00
20620;BME280;10469;42.720;23.252;2023-05-09T09:22:24;95190.03;;;16.07;100.00
20620;BME280;10469;42.720;23.252;2023-05-09T09:25:00;95209.94;;;15.58;100.00
20620;BME280;10469;42.720;23.252;2023-05-09T09:27:27;95195.00;;;15.83;100.00
20620;BME280;10469;42.720;23.252;2023-05-09T09:29:53;95196.09;;;16.39;100.00
20620;BME280;10469;42.720;23.252;2023-05-09T09:32:19;95201.94;;;16.11;100.00
20620;BME280;10469;42.720;23.252;2023-05-09T09:35:05;95181.03;;;16.01;100.00
20620;BME280;10469;42.720;23.252;2023-05-09T09:37:38;95193.66;;;16.38;100.00
20620;BME280;10469;42.720;23.252;2023-05-09T09:40:06;95198.75;;;17.58;100.00
20620;BME280;10469;42.720;23.252;2023-05-09T09:42:44;95199.34;;;19.78;100.00
20620;BME280;10469;42.720;23.252;2023-05-09T09:45:18;95182.47;;;19.13;100.00
20620;BME280;10469;42.720;23.252;2023-05-09T09:47:45;95176.84;;;18.45;100.00
20620;BME280;10469;42.720;23.252;2023-05-09T09:50:16;95187.34;;;17.36;100.00
20620;BME280;10469;42.720;23.252;2023-05-09T09:52:46;95208.22;;;17.86;100.00
20620;BME280;10469;42.720;23.252;2023-05-09T09:55:13;95213.75;;;16.57;100.00
20620;BME280;10469;42.720;23.252;2023-05-09T09:57:39;95204.34;;;16.02;100.00
20620;BME280;10469;42.720;23.252;2023-05-09T10:00:06;95196.88;;;15.77;100.00
20620;BME280;10469;42.720;23.252;2023-05-09T10:02:32;95190.34;;;16.25;100.00
20620;BME280;10469;42.720;23.252;2023-05-09T10:05:07;95196.50;;;16.73;100.00
20620;BME280;10469;42.720;23.252;2023-05-09T10:07:34;95168.41;;;17.10;100.00
20620;BME280;10469;42.720;23.252;2023-05-09T10:10:00;95198.09;;;18.27;100.00
20620;BME280;10469;42.720;23.252;2023-05-09T10:12:32;95174.31;;;17.94;100.00
20620;BME280;10469;42.720;23.252;2023-05-09T10:15:05;95182.50;;;17.38;100.00
20620;BME280;10469;42.720;23.252;2023-05-09T10:17:33;95171.00;;;16.64;100.00
20620;BME280;10469;42.720;23.252;2023-05-09T10:20:03;95175.13;;;16.82;100.00
20620;BME280;10469;42.720;23.252;2023-05-09T10:22:31;95170.56;;;17.03;100.00
20620;BME280;10469;42.720;23.252;2023-05-09T10:25:07;95186.59;;;16.31;100.00
20620;BME280;10469;42.720;23.252;2023-05-09T10:27:38;95186.44;;;16.01;100.00
20620;BME280;10469;42.720;23.252;2023-05-09T10:30:14;95156.69;;;15.96;100.00
20620;BME280;10469;42.720;23.252;2023-05-09T10:35:28;95164.44;;;16.40;100.00
20620;BME280;10469;42.720;23.252;2023-05-09T10:37:55;95161.25;;;16.68;100.00
20620;BME280;10469;42.720;23.252;2023-05-09T10:40:22;95171.97;;;16.27;100.00
20620;BME280;10469;42.720;23.252;2023-05-09T10:42:48;95160.88;;;15.71;100.00
20620;BME280;10469;42.720;23.252;2023-05-09T10:45:14;95139.22;;;15.29;100.00
20620;BME280;10469;42.720;23.252;2023-05-09T10:47:41;95159.19;;;15.28;100.00
20620;BME280;10469;42.720;23.252;2023-05-09T10:50:11;95172.38;;;15.56;100.00
20620;BME280;10469;42.720;23.252;2023-05-09T10:55:38;95171.84;;;15.54;100.00
20620;BME280;10469;42.720;23.252;2023-05-09T10:58:23;95167.13;;;15.40;100.00
20620;BME280;10469;42.720;23.252;2023-05-09T11:00:51;95182.88;;;15.48;100.00
20620;BME280;10469;42.720;23.252;2023-05-09T11:03:17;95177.78;;;15.56;100.00
20620;BME280;10469;42.720;23.252;2023-05-09T11:05:46;95154.50;;;15.13;100.00
20620;BME280;10469;42.720;23.252;2023-05-09T11:08:26;95184.44;;;14.52;100.00
20620;BME280;10469;42.720;23.252;2023-05-09T11:10:57;95177.34;;;14.68;100.00
20620;BME280;10469;42.720;23.252;2023-05-09T11:13:29;95190.97;;;14.84;100.00
20620;BME280;10469;42.720;23.252;2023-05-09T11:18:31;95174.31;;;15.61;100.00
20620;BME280;10469;42.720;23.252;2023-05-09T11:20:57;95165.13;;;16.93;100.00
20620;BME280;10469;42.720;23.252;2023-05-09T11:23:28;95140.53;;;16.11;100.00
20620;BME280;10469;42.720;23.252;2023-05-09T11:26:04;95146.19;;;15.62;100.00
20620;BME280;10469;42.720;23.252;2023-05-09T11:28:33;95185.78;;;15.78;100.00
20620;BME280;10469;42.720;23.252;2023-05-09T11:31:25;95166.25;;;15.66;100.00
20620;BME280;10469;42.720;23.252;2023-05-09T11:33:50;95171.41;;;15.36;100.00
20620;BME280;10469;42.720;23.252;2023-05-09T11:36:29;95169.38;;;15.90;100.00
20620;BME280;10469;42.720;23.252;2023-05-09T11:39:08;95124.03;;;16.13;100.00
20620;BME280;10469;42.720;23.252;2023-05-09T11:41:42;95171.53;;;16.66;100.00
20620;BME280;10469;42.720;23.252;2023-05-09T11:44:19;95179.94;;;15.54;100.00
20620;BME280;10469;42.720;23.252;2023-05-09T11:46:46;95177.59;;;15.31;100.00
20620;BME280;10469;42.720;23.252;2023-05-09T11:49:12;95181.66;;;15.28;100.00
20620;BME280;10469;42.720;23.252;2023-05-09T11:51:38;95173.66;;;14.79;100.00
20620;BME280;10469;42.720;23.252;2023-05-09T11:54:06;95165.81;;;15.10;100.00
20620;BME280;10469;42.720;23.252;2023-05-09T11:56:39;95175.56;;;14.84;100.00
20620;BME280;10469;42.720;23.252;2023-05-09T11:59:06;95183.03;;;15.36;100.00
20620;BME280;10469;42.720;23.252;2023-05-09T12:01:32;95154.00;;;15.16;100.00
20620;BME280;10469;42.720;23.252;2023-05-09T12:03:57;95170.28;;;14.67;100.00
20620;BME280;10469;42.720;23.252;2023-05-09T12:06:24;95155.66;;;15.22;100.00
20620;BME280;10469;42.720;23.252;2023-05-09T12:08:55;95186.66;;;14.83;100.00
20620;BME280;10469;42.720;23.252;2023-05-09T12:11:23;95182.03;;;15.10;100.00
20620;BME280;10469;42.720;23.252;2023-05-09T12:13:50;95175.34;;;15.55;100.00
20620;BME280;10469;42.720;23.252;2023-05-09T12:16:17;95168.94;;;15.66;100.00
20620;BME280;10469;42.720;23.252;2023-05-09T12:18:45;95179.56;;;15.78;100.00
20620;BME280;10469;42.720;23.252;2023-05-09T12:21:11;95173.66;;;15.44;100.00
20620;BME280;10469;42.720;23.252;2023-05-09T12:23:37;95173.84;;;15.00;100.00
20620;BME280;10469;42.720;23.252;2023-05-09T12:26:02;95173.03;;;14.23;100.00
20620;BME280;10469;42.720;23.252;2023-05-09T12:28:28;95182.34;;;14.38;100.00
20620;BME280;10469;42.720;23.252;2023-05-09T12:30:54;95173.44;;;14.59;100.00
20620;BME280;10469;42.720;23.252;2023-05-09T12:33:20;95179.50;;;14.71;100.00
20620;BME280;10469;42.720;23.252;2023-05-09T12:35:47;95162.53;;;14.76;100.00
20620;BME280;10469;42.720;23.252;2023-05-09T12:38:19;95159.13;;;14.59;100.00
20620;BME280;10469;42.720;23.252;2023-05-09T12:40:58;95156.09;;;15.09;100.00
20620;BME280;10469;42.720;23.252;2023-05-09T12:43:24;95168.91;;;14.92;100.00
20620;BME280;10469;42.720;23.252;2023-05-09T12:45:52;95158.56;;;14.84;100.00
20620;BME280;10469;42.720;23.252;2023-05-09T12:48:21;95147.00;;;14.34;100.00
20620;BME280;10469;42.720;23.252;2023-05-09T12:50:48;95156.78;;;14.67;100.00
20620;BME280;10469;42.720;23.252;2023-05-09T12:53:25;95163.63;;;14.26;100.00
20620;BME280;10469;42.720;23.252;2023-05-09T12:56:02;95158.56;;;14.08;100.00
20620;BME280;10469;42.720;23.252;2023-05-09T12:58:31;95160.56;;;14.17;100.00
20620;BME280;10469;42.720;23.252;2023-05-09T13:00:58;95146.97;;;13.68;100.00
20620;BME280;10469;42.720;23.252;2023-05-09T13:03:25;95170.56;;;13.78;100.00
20620;BME280;10469;42.720;23.252;2023-05-09T13:05:59;95137.50;;;14.31;100.00
20620;BME280;10469;42.720;23.252;2023-05-09T13:08:26;95158.53;;;13.86;100.00
20620;BME280;10469;42.720;23.252;2023-05-09T13:10:52;95143.84;;;13.38;100.00
20620;BME280;10469;42.720;23.252;2023-05-09T13:13:28;95141.66;;;13.51;100.00
20620;BME280;10469;42.720;23.252;2023-05-09T13:16:03;95147.38;;;13.21;100.00